Altmar, New York
Current Conditions -  °F | °C
As of 8:54 PM on Saturday 25 Oct 2014 (Local Time) from KFZY Reporting Station
Clear Clear  
Wind Chill: 54°   Ceiling: Unl
Heat Index: 54°   Visibility: 10mi
Dew Point: 46°   Wind: 7mph
Humidity: 75%   Direction: 240°WSW
Pressure: 29.57"   Gusts: NA
Location:  43.51°N, 76°W
Report Text: KFZY 260054Z AUTO 24006KT 10SM CLR 12/08 A2957 RMK AO2 SLP015 T01220078
Loading
Personal Weather Stations






























Interactive Weather Map
Tropical Storm Tracking
New forecast layout! Learn more

10-Day Weather Forecast

Advertisements
Track Severe Weather on mobile